createdAt,value
2017-12-13T00:00:05.509Z,99.99
2017-12-13T00:01:05.493Z,99.99
2017-12-13T00:02:05.473Z,99.99
2017-12-13T00:03:05.478Z,99.99
2017-12-13T00:04:05.429Z,99.99
2017-12-13T00:05:05.412Z,99.99
2017-12-13T00:06:05.378Z,99.99
2017-12-13T00:07:05.362Z,99.99
2017-12-13T00:08:05.344Z,99.99
2017-12-13T00:09:05.315Z,99.99
2017-12-13T00:10:05.306Z,99.99
2017-12-13T00:11:05.287Z,99.99
2017-12-13T00:12:05.267Z,99.99
2017-12-13T00:13:05.225Z,99.99
2017-12-13T00:14:05.207Z,99.99
2017-12-13T00:15:05.193Z,99.99
2017-12-13T00:16:05.162Z,99.99
2017-12-13T00:17:05.684Z,99.99
2017-12-13T00:18:05.116Z,99.99
2017-12-13T00:19:05.126Z,99.99
2017-12-13T00:20:05.089Z,99.99
2017-12-13T00:21:05.070Z,99.99
2017-12-13T00:22:05.047Z,99.99
2017-12-13T00:23:05.017Z,99.99
2017-12-13T00:24:04.995Z,99.99
2017-12-13T00:25:04.977Z,99.99
2017-12-13T00:26:04.957Z,99.99
2017-12-13T00:27:04.937Z,99.99
2017-12-13T00:28:04.899Z,99.99
2017-12-13T00:29:04.880Z,99.99
2017-12-13T00:30:04.867Z,99.99
2017-12-13T00:31:04.862Z,99.99
2017-12-13T00:32:04.812Z,99.99
2017-12-13T00:33:04.810Z,99.99
2017-12-13T00:34:04.782Z,99.99
2017-12-13T00:35:04.762Z,99.99
2017-12-13T00:36:04.724Z,99.99
2017-12-13T00:37:04.706Z,99.99
2017-12-13T00:38:04.762Z,99.99
2017-12-13T00:39:04.738Z,99.99
2017-12-13T00:40:04.710Z,99.99
2017-12-13T00:41:04.692Z,99.99
2017-12-13T00:42:04.665Z,99.99
2017-12-13T00:43:04.657Z,99.99
2017-12-13T00:44:04.637Z,99.99
2017-12-13T00:45:04.607Z,99.99
2017-12-13T00:46:04.593Z,99.99
2017-12-13T00:47:04.573Z,99.99
2017-12-13T00:48:04.534Z,99.99
2017-12-13T00:49:04.549Z,99.99
2017-12-13T00:50:04.500Z,99.99
2017-12-13T00:51:04.485Z,99.99
2017-12-13T00:52:04.463Z,99.99
2017-12-13T00:53:04.449Z,99.99
2017-12-13T00:54:04.416Z,99.99
2017-12-13T00:55:04.386Z,99.99
2017-12-13T00:56:04.368Z,99.99
2017-12-13T00:57:04.346Z,99.99
2017-12-13T00:58:04.323Z,99.99
2017-12-13T00:59:04.308Z,99.99
2017-12-13T01:00:04.276Z,99.99
2017-12-13T01:01:04.257Z,99.99
2017-12-13T01:02:04.238Z,99.99
2017-12-13T01:03:04.212Z,99.99
2017-12-13T01:04:04.206Z,99.99
2017-12-13T01:05:04.207Z,99.99
2017-12-13T01:06:04.145Z,99.99
2017-12-13T01:07:04.140Z,99.99
2017-12-13T01:08:04.117Z,99.99
2017-12-13T01:09:04.082Z,99.99
2017-12-13T01:10:04.062Z,99.99
2017-12-13T01:11:04.050Z,99.99
2017-12-13T01:12:04.017Z,99.99
2017-12-13T01:13:04.002Z,99.99
2017-12-13T01:14:03.972Z,99.99
2017-12-13T01:15:03.951Z,99.99
2017-12-13T01:16:03.927Z,99.99
2017-12-13T01:17:03.901Z,99.99
2017-12-13T01:18:03.902Z,99.99
2017-12-13T01:19:03.872Z,99.99
2017-12-13T01:20:03.853Z,99.99
2017-12-13T01:21:03.837Z,99.99
2017-12-13T01:22:03.826Z,99.99
2017-12-13T01:23:03.793Z,99.99
2017-12-13T01:24:03.757Z,99.99
2017-12-13T01:25:03.741Z,99.99
2017-12-13T01:26:03.713Z,99.99
2017-12-13T01:27:03.693Z,99.99
2017-12-13T01:28:03.679Z,99.99
2017-12-13T01:29:03.663Z,99.99
2017-12-13T01:30:03.624Z,99.99
2017-12-13T01:31:03.604Z,99.99
2017-12-13T01:32:03.615Z,99.99
2017-12-13T01:33:03.567Z,99.99
2017-12-13T01:34:03.534Z,99.99
2017-12-13T01:35:03.517Z,99.99
2017-12-13T01:36:03.511Z,99.99
2017-12-13T01:37:03.487Z,99.99
2017-12-13T01:38:03.452Z,99.99
2017-12-13T01:39:03.443Z,99.99
2017-12-13T01:40:03.419Z,99.99
2017-12-13T01:41:03.382Z,99.99
2017-12-13T01:42:03.377Z,99.99
2017-12-13T01:43:03.347Z,99.99
2017-12-13T01:44:03.325Z,99.99
2017-12-13T01:45:03.295Z,99.99
2017-12-13T01:46:03.300Z,99.99
2017-12-13T01:47:03.269Z,99.99
2017-12-13T01:48:03.238Z,99.99
2017-12-13T01:49:03.229Z,99.99
2017-12-13T01:50:03.204Z,99.99
2017-12-13T01:51:03.164Z,99.99
2017-12-13T01:52:03.148Z,99.99
2017-12-13T01:53:03.132Z,99.99
2017-12-13T01:54:03.107Z,99.99
2017-12-13T01:55:03.085Z,99.99
2017-12-13T01:56:03.071Z,99.99
2017-12-13T01:57:03.047Z,99.99
2017-12-13T01:58:03.013Z,99.99
2017-12-13T01:59:02.998Z,99.99
2017-12-13T02:00:02.986Z,99.99
2017-12-13T02:01:02.962Z,99.99
2017-12-13T02:02:02.930Z,99.99
2017-12-13T02:03:02.915Z,99.99
2017-12-13T02:04:02.903Z,99.99
2017-12-13T02:05:02.879Z,99.99
2017-12-13T02:06:02.855Z,99.99
2017-12-13T02:07:02.835Z,99.99
2017-12-13T02:08:02.818Z,99.99
2017-12-13T02:09:02.786Z,99.99
2017-12-13T02:10:02.757Z,99.99
2017-12-13T02:11:02.745Z,99.99
2017-12-13T02:12:02.721Z,99.99
2017-12-13T02:13:02.619Z,99.99
2017-12-13T02:14:02.607Z,99.99
2017-12-13T02:15:02.604Z,99.99
2017-12-13T02:16:02.561Z,99.99
2017-12-13T02:17:02.544Z,99.99
2017-12-13T02:18:02.518Z,99.99
2017-12-13T02:19:02.496Z,99.99
2017-12-13T02:20:02.465Z,99.99
2017-12-13T02:21:02.464Z,99.99
2017-12-13T02:22:02.425Z,99.99
2017-12-13T02:23:02.409Z,99.99
2017-12-13T02:24:02.384Z,99.99
2017-12-13T02:25:02.369Z,99.99
2017-12-13T02:26:02.338Z,99.99
2017-12-13T02:27:02.329Z,99.99
2017-12-13T02:28:02.300Z,99.99
2017-12-13T02:29:02.276Z,99.99
2017-12-13T02:30:02.303Z,99.99
2017-12-13T02:31:02.230Z,99.99
2017-12-13T02:32:02.240Z,99.99
2017-12-13T02:33:02.204Z,99.99
2017-12-13T02:34:02.181Z,99.99
2017-12-13T02:35:02.150Z,99.99
2017-12-13T02:36:02.126Z,99.99
2017-12-13T02:37:02.117Z,99.99
2017-12-13T02:38:02.084Z,99.99
2017-12-13T02:39:02.085Z,99.99
2017-12-13T02:40:02.041Z,99.99
2017-12-13T02:41:02.028Z,99.99
2017-12-13T02:42:01.994Z,99.99
2017-12-13T02:43:01.977Z,99.99
2017-12-13T02:44:01.953Z,99.99
2017-12-13T02:45:01.939Z,99.99
2017-12-13T02:46:01.920Z,99.99
2017-12-13T02:47:01.902Z,99.99
2017-12-13T02:48:01.874Z,99.99
2017-12-13T02:49:01.852Z,99.99
2017-12-13T02:50:01.832Z,99.99
2017-12-13T02:51:01.803Z,99.99
2017-12-13T02:52:01.783Z,99.99
2017-12-13T02:53:01.759Z,99.99
2017-12-13T02:54:01.748Z,99.99
2017-12-13T02:55:01.744Z,99.99
2017-12-13T02:56:01.706Z,99.99
2017-12-13T02:57:01.675Z,99.99
2017-12-13T02:58:01.650Z,99.99
2017-12-13T02:59:01.632Z,99.99
2017-12-13T03:00:01.619Z,99.99
2017-12-13T03:01:01.853Z,99.99
2017-12-13T03:02:01.572Z,99.99
2017-12-13T03:03:01.539Z,99.99
2017-12-13T03:04:01.522Z,99.99
2017-12-13T03:05:01.517Z,99.99
2017-12-13T03:06:01.490Z,99.99
2017-12-13T03:07:01.466Z,99.99
2017-12-13T03:08:01.440Z,99.99
2017-12-13T03:09:01.417Z,99.99
2017-12-13T03:10:01.401Z,99.99
2017-12-13T03:11:01.373Z,99.99
2017-12-13T03:12:01.359Z,99.99
2017-12-13T03:13:01.328Z,99.99
2017-12-13T03:14:01.305Z,99.99
2017-12-13T03:15:01.283Z,99.99
2017-12-13T03:16:01.270Z,99.99
2017-12-13T03:17:01.254Z,99.99
2017-12-13T03:18:01.235Z,99.99
2017-12-13T03:19:01.215Z,99.99
2017-12-13T03:20:01.192Z,99.99
2017-12-13T03:21:01.160Z,99.99
2017-12-13T03:22:01.161Z,99.99
2017-12-13T03:23:01.129Z,99.99
2017-12-13T03:24:01.110Z,99.99
2017-12-13T03:25:01.077Z,99.99
2017-12-13T03:26:01.065Z,99.99
2017-12-13T03:27:01.026Z,99.99
2017-12-13T03:28:01.016Z,99.99
2017-12-13T03:29:00.998Z,99.99
2017-12-13T03:30:00.971Z,99.99
2017-12-13T03:31:00.953Z,99.99
2017-12-13T03:32:00.947Z,99.99
2017-12-13T03:33:00.909Z,99.99
2017-12-13T03:34:00.885Z,99.99
2017-12-13T03:35:00.854Z,99.99
2017-12-13T03:36:00.830Z,99.99
2017-12-13T03:37:00.822Z,99.99
2017-12-13T03:38:00.813Z,99.99
2017-12-13T03:39:00.763Z,99.99
2017-12-13T03:40:00.776Z,99.99
2017-12-13T03:41:00.740Z,99.99
2017-12-13T03:42:00.703Z,99.99
2017-12-13T03:43:00.680Z,99.99
2017-12-13T03:44:00.670Z,99.99
2017-12-13T03:45:00.637Z,99.99
2017-12-13T03:46:00.630Z,99.99
2017-12-13T03:47:00.595Z,99.99
2017-12-13T03:48:00.571Z,99.99
2017-12-13T03:49:00.547Z,99.99
2017-12-13T03:50:00.543Z,99.99
2017-12-13T03:51:00.523Z,99.99
2017-12-13T03:52:00.498Z,99.99
2017-12-13T03:53:00.471Z,99.99
2017-12-13T03:54:00.451Z,99.99
2017-12-13T03:55:00.445Z,99.99
2017-12-13T03:56:00.406Z,99.99
2017-12-13T03:57:00.389Z,99.99
2017-12-13T03:58:00.371Z,99.99
2017-12-13T03:59:00.346Z,99.99
2017-12-13T04:00:00.322Z,99.99
2017-12-13T04:01:00.289Z,99.99
2017-12-13T04:02:00.279Z,99.99
2017-12-13T04:03:00.259Z,99.99
2017-12-13T04:04:00.244Z,99.99
2017-12-13T04:05:00.207Z,99.99
2017-12-13T04:06:00.190Z,99.99
2017-12-13T04:07:00.172Z,99.99
2017-12-13T04:08:00.140Z,99.99
2017-12-13T04:09:00.119Z,99.99
2017-12-13T04:10:00.101Z,99.99
2017-12-13T04:11:00.076Z,99.99
2017-12-13T04:12:00.068Z,99.99
2017-12-13T04:13:00.046Z,99.99
2017-12-13T04:14:00.025Z,99.99
2017-12-13T04:15:00.008Z,99.99
2017-12-13T04:15:59.974Z,99.99
2017-12-13T04:16:59.951Z,99.99
2017-12-13T04:17:59.932Z,99.99
2017-12-13T04:18:59.904Z,99.99
2017-12-13T04:19:59.892Z,99.99
2017-12-13T04:20:59.873Z,99.99
2017-12-13T04:21:59.851Z,99.99
2017-12-13T04:22:59.833Z,99.99
2017-12-13T04:23:59.808Z,99.99
2017-12-13T04:24:59.775Z,99.99
2017-12-13T04:25:59.751Z,99.99
2017-12-13T04:26:59.728Z,99.99
2017-12-13T04:27:59.707Z,99.99
2017-12-13T04:28:59.685Z,99.99
2017-12-13T04:29:59.671Z,99.99
2017-12-13T04:30:59.639Z,99.99
2017-12-13T04:31:59.633Z,99.99
2017-12-13T04:32:59.609Z,99.99
2017-12-13T04:33:59.573Z,99.99
2017-12-13T04:34:59.568Z,99.99
2017-12-13T04:35:59.542Z,99.99
2017-12-13T04:36:59.524Z,99.99
2017-12-13T04:37:59.501Z,99.99
2017-12-13T04:38:59.471Z,99.99
2017-12-13T04:39:59.458Z,99.99
2017-12-13T04:40:59.428Z,99.99
2017-12-13T04:41:59.409Z,99.99
2017-12-13T04:42:59.393Z,99.99
2017-12-13T04:43:59.358Z,99.99
2017-12-13T04:44:59.332Z,99.99
2017-12-13T04:45:59.330Z,99.99
2017-12-13T04:46:59.299Z,99.99
2017-12-13T04:47:59.273Z,99.99
2017-12-13T04:48:59.251Z,99.99
2017-12-13T04:49:59.226Z,99.99
2017-12-13T04:50:59.216Z,99.99
2017-12-13T04:51:59.190Z,99.99
2017-12-13T04:52:59.183Z,99.99
2017-12-13T04:53:59.146Z,99.99
2017-12-13T04:54:59.134Z,99.99
2017-12-13T04:55:59.114Z,99.99
2017-12-13T04:56:59.083Z,99.99
2017-12-13T04:57:59.084Z,99.99
2017-12-13T04:58:59.036Z,99.99
2017-12-13T04:59:59.015Z,99.99
2017-12-13T05:00:58.993Z,99.99
2017-12-13T05:01:58.972Z,99.99
2017-12-13T05:02:58.949Z,99.99
2017-12-13T05:03:58.935Z,99.99
2017-12-13T05:04:58.913Z,99.99
2017-12-13T05:05:58.892Z,99.99
2017-12-13T05:06:58.877Z,99.99
2017-12-13T05:07:58.852Z,99.99
2017-12-13T05:08:58.817Z,99.99
2017-12-13T05:09:58.809Z,99.99
2017-12-13T05:10:58.791Z,99.99
2017-12-13T05:11:58.755Z,99.99
2017-12-13T05:12:58.744Z,99.99
2017-12-13T05:13:58.740Z,99.99
2017-12-13T05:14:58.704Z,99.99
2017-12-13T05:15:58.683Z,99.99
2017-12-13T05:16:58.661Z,99.99
2017-12-13T05:17:58.628Z,99.99
2017-12-13T05:18:58.602Z,99.99
2017-12-13T05:19:58.592Z,99.99
2017-12-13T05:20:58.564Z,99.99
2017-12-13T05:21:58.566Z,99.99
2017-12-13T05:22:58.525Z,99.99
2017-12-13T05:23:58.525Z,99.99
2017-12-13T05:24:58.484Z,99.99
2017-12-13T05:25:58.445Z,99.99
2017-12-13T05:26:58.459Z,99.99
2017-12-13T05:27:58.415Z,99.99
2017-12-13T05:28:58.398Z,99.99
2017-12-13T05:29:58.382Z,99.99
2017-12-13T05:30:58.342Z,99.99
2017-12-13T05:31:58.329Z,99.99
2017-12-13T05:32:58.329Z,99.99
2017-12-13T05:33:58.284Z,99.99
2017-12-13T05:34:58.256Z,99.99
2017-12-13T05:35:58.283Z,99.99
2017-12-13T05:36:58.212Z,99.99
2017-12-13T05:37:58.205Z,99.99
2017-12-13T05:38:58.168Z,99.99
2017-12-13T05:39:58.152Z,99.99
2017-12-13T05:40:58.125Z,99.99
2017-12-13T05:41:58.117Z,99.99
2017-12-13T05:42:58.113Z,99.99
2017-12-13T05:43:58.064Z,99.99
2017-12-13T05:44:58.036Z,99.99
2017-12-13T05:45:58.015Z,99.99
2017-12-13T05:46:58.006Z,99.99
2017-12-13T05:47:57.980Z,99.99
2017-12-13T05:48:57.952Z,99.99
2017-12-13T05:49:57.938Z,99.99
2017-12-13T05:50:57.914Z,99.99
2017-12-13T05:51:57.886Z,99.99
2017-12-13T05:52:57.880Z,99.99
2017-12-13T05:53:57.845Z,99.99
2017-12-13T05:54:57.853Z,99.99
2017-12-13T05:55:57.812Z,99.99
2017-12-13T05:56:57.786Z,99.99
2017-12-13T05:57:57.767Z,99.99
2017-12-13T05:58:57.734Z,99.99
2017-12-13T05:59:57.721Z,99.99
2017-12-13T06:00:57.704Z,99.99
2017-12-13T06:01:57.684Z,99.99
2017-12-13T06:02:57.647Z,99.99
2017-12-13T06:03:57.640Z,99.99
2017-12-13T06:04:57.613Z,99.99
2017-12-13T06:05:57.590Z,99.99
2017-12-13T06:06:57.557Z,99.99
2017-12-13T06:07:57.548Z,99.99
2017-12-13T06:08:57.517Z,99.99
2017-12-13T06:09:57.509Z,99.99
2017-12-13T06:10:57.476Z,99.99
2017-12-13T06:11:57.460Z,99.99
2017-12-13T06:12:57.438Z,99.99
2017-12-13T06:13:57.407Z,99.99
2017-12-13T06:14:57.385Z,99.99
2017-12-13T06:15:57.361Z,99.99
2017-12-13T06:16:57.347Z,99.99
2017-12-13T06:17:57.365Z,99.99
2017-12-13T06:18:57.307Z,99.99
2017-12-13T06:19:57.311Z,99.99
2017-12-13T06:20:57.259Z,99.99
2017-12-13T06:21:57.241Z,99.99
2017-12-13T06:22:57.232Z,99.99
2017-12-13T06:23:57.218Z,99.99
2017-12-13T06:24:57.198Z,99.99
2017-12-13T06:25:57.148Z,99.99
2017-12-13T06:26:57.138Z,99.99
2017-12-13T06:27:57.118Z,99.99
2017-12-13T06:28:57.096Z,99.99
2017-12-13T06:29:57.057Z,99.99
2017-12-13T06:30:57.047Z,99.99
2017-12-13T06:31:57.018Z,99.99
2017-12-13T06:32:56.995Z,99.99
2017-12-13T06:33:56.973Z,99.99
2017-12-13T06:34:56.959Z,99.99
2017-12-13T06:35:56.959Z,99.99
2017-12-13T06:36:56.922Z,99.99
2017-12-13T06:37:56.902Z,99.99
2017-12-13T06:38:56.864Z,99.99
2017-12-13T06:39:56.851Z,99.99
2017-12-13T06:40:56.836Z,99.99
2017-12-13T06:41:56.810Z,99.99
2017-12-13T06:42:56.776Z,99.99
2017-12-13T06:43:56.785Z,99.99
2017-12-13T06:44:56.732Z,99.99
2017-12-13T06:45:56.722Z,99.99
2017-12-13T06:46:56.693Z,99.99
2017-12-13T06:47:56.675Z,99.99
2017-12-13T06:48:56.661Z,99.99
2017-12-13T06:49:56.653Z,99.99
2017-12-13T06:50:56.613Z,99.99
2017-12-13T06:51:56.594Z,99.99
2017-12-13T06:52:56.559Z,99.99
2017-12-13T06:53:56.548Z,99.99
2017-12-13T06:54:56.518Z,99.99
2017-12-13T06:55:56.558Z,99.99
2017-12-13T06:56:56.472Z,99.99
2017-12-13T06:57:56.450Z,99.99
2017-12-13T06:58:56.438Z,99.99
2017-12-13T06:59:56.437Z,99.99
2017-12-13T07:00:56.396Z,99.99
2017-12-13T07:01:56.362Z,99.99
2017-12-13T07:02:56.342Z,99.99
2017-12-13T07:03:56.318Z,99.99
2017-12-13T07:04:56.308Z,99.99
2017-12-13T07:05:56.283Z,99.99
2017-12-13T07:06:56.264Z,99.99
2017-12-13T07:07:56.249Z,99.99
2017-12-13T07:08:56.222Z,99.99
2017-12-13T07:09:56.206Z,99.99
2017-12-13T07:10:56.186Z,99.99
2017-12-13T07:11:56.162Z,99.99
2017-12-13T07:12:56.124Z,99.99
2017-12-13T07:13:56.120Z,99.99
2017-12-13T07:14:56.103Z,99.99
2017-12-13T07:15:56.073Z,99.99
2017-12-13T07:16:56.053Z,99.99
2017-12-13T07:17:56.023Z,99.99
2017-12-13T07:18:56.008Z,99.99
2017-12-13T07:19:55.993Z,99.99
2017-12-13T07:20:55.966Z,99.99
2017-12-13T07:21:55.945Z,99.99
2017-12-13T07:22:55.923Z,99.99
2017-12-13T07:23:55.896Z,99.99
2017-12-13T07:24:55.869Z,99.99
2017-12-13T07:25:55.859Z,99.99
2017-12-13T07:26:55.836Z,99.99
2017-12-13T07:27:55.817Z,99.99
2017-12-13T07:28:55.791Z,99.99
2017-12-13T07:29:55.768Z,99.99
2017-12-13T07:30:55.740Z,99.99
2017-12-13T07:31:55.726Z,99.99
2017-12-13T07:32:55.703Z,99.99
2017-12-13T07:33:55.676Z,99.99
2017-12-13T07:34:55.661Z,99.99
2017-12-13T07:35:55.628Z,99.99
2017-12-13T07:36:55.613Z,99.99
2017-12-13T07:37:55.599Z,99.99
2017-12-13T07:38:55.591Z,99.99
2017-12-13T07:39:55.558Z,99.99
2017-12-13T07:40:55.532Z,99.99
2017-12-13T07:41:55.515Z,99.99
2017-12-13T07:42:55.505Z,99.99
2017-12-13T07:43:55.462Z,99.99
2017-12-13T07:44:55.438Z,99.99
2017-12-13T07:45:55.429Z,99.99
2017-12-13T07:46:55.396Z,99.99
2017-12-13T07:47:55.373Z,99.99
2017-12-13T07:48:55.352Z,99.99
2017-12-13T07:49:55.343Z,99.99
2017-12-13T07:50:55.334Z,99.99
2017-12-13T07:51:55.299Z,99.99
2017-12-13T07:52:55.280Z,99.99
2017-12-13T07:53:55.251Z,99.99
2017-12-13T07:54:55.231Z,99.99
2017-12-13T07:55:55.201Z,99.99
2017-12-13T07:56:55.195Z,99.99
2017-12-13T07:57:55.163Z,99.99
2017-12-13T07:58:55.136Z,99.99
2017-12-13T07:59:55.116Z,99.99
2017-12-13T08:00:55.094Z,99.99
2017-12-13T08:01:55.086Z,99.99
2017-12-13T08:02:55.061Z,99.99
2017-12-13T08:03:55.033Z,99.99
2017-12-13T08:04:55.082Z,99.99
2017-12-13T08:05:54.986Z,99.99
2017-12-13T08:06:54.971Z,99.99
2017-12-13T08:07:54.972Z,99.99
2017-12-13T08:08:54.922Z,99.99
2017-12-13T08:09:54.918Z,99.99
2017-12-13T08:10:54.895Z,99.99
2017-12-13T08:11:54.858Z,99.99
2017-12-13T08:12:54.849Z,99.99
2017-12-13T08:13:54.821Z,99.99
2017-12-13T08:14:54.806Z,99.99
2017-12-13T08:15:54.785Z,99.99
2017-12-13T08:16:54.765Z,99.99
2017-12-13T08:17:54.723Z,99.99
2017-12-13T08:18:54.705Z,99.99
2017-12-13T08:19:54.698Z,99.99
2017-12-13T08:20:54.693Z,99.99
2017-12-13T08:21:54.649Z,99.99
2017-12-13T08:22:54.618Z,99.99
2017-12-13T08:23:54.607Z,99.99
2017-12-13T08:24:54.580Z,99.99
2017-12-13T08:25:54.566Z,99.99
2017-12-13T08:26:54.553Z,99.99
2017-12-13T08:27:54.512Z,99.99
2017-12-13T08:28:54.519Z,99.99
2017-12-13T08:29:54.480Z,99.99
2017-12-13T08:30:54.448Z,99.99
2017-12-13T08:31:54.451Z,99.99
2017-12-13T08:32:54.404Z,99.99
2017-12-13T08:33:54.379Z,99.99
2017-12-13T08:34:54.375Z,99.99
2017-12-13T08:35:54.353Z,99.99
2017-12-13T08:36:54.319Z,99.99
2017-12-13T08:37:54.298Z,99.99
2017-12-13T08:38:54.283Z,99.99
2017-12-13T08:39:54.263Z,99.99
2017-12-13T08:40:54.257Z,99.99
2017-12-13T08:41:54.223Z,99.99
2017-12-13T08:42:54.215Z,99.99
2017-12-13T08:43:54.183Z,99.99
2017-12-13T08:44:54.147Z,99.99
2017-12-13T08:45:54.125Z,99.99
2017-12-13T08:46:54.110Z,99.99
2017-12-13T08:47:54.084Z,99.99
2017-12-13T08:48:54.057Z,99.99
2017-12-13T08:49:54.050Z,99.99
2017-12-13T08:50:54.032Z,99.99
2017-12-13T08:51:53.998Z,99.99
2017-12-13T08:52:53.984Z,99.99
2017-12-13T08:53:53.968Z,99.99
2017-12-13T08:54:53.947Z,99.99
2017-12-13T08:55:53.923Z,99.99
2017-12-13T08:56:53.885Z,99.99
2017-12-13T08:57:54.407Z,99.99
2017-12-13T08:58:53.844Z,99.99
2017-12-13T08:59:53.839Z,99.99
2017-12-13T09:00:53.828Z,99.99
2017-12-13T09:01:53.780Z,99.99
2017-12-13T09:02:53.773Z,99.99
2017-12-13T09:03:53.778Z,99.99
2017-12-13T09:04:53.714Z,99.99
2017-12-13T09:05:53.861Z,99.99
2017-12-13T09:06:53.686Z,99.99
2017-12-13T09:07:53.649Z,99.99
2017-12-13T09:08:53.641Z,99.99
2017-12-13T09:09:53.618Z,99.99
2017-12-13T09:10:53.596Z,99.99
2017-12-13T09:11:53.572Z,99.99
2017-12-13T09:12:53.575Z,99.99
2017-12-13T09:13:53.536Z,99.99
2017-12-13T09:14:53.501Z,99.99
2017-12-13T09:15:54.221Z,99.99
2017-12-13T09:16:53.993Z,99.99
2017-12-13T09:17:53.454Z,99.99
2017-12-13T09:18:53.418Z,99.99
2017-12-13T09:19:53.408Z,99.99
2017-12-13T09:20:53.379Z,99.99
2017-12-13T09:21:53.358Z,99.99
2017-12-13T09:22:53.342Z,99.99
2017-12-13T09:23:53.312Z,99.99
2017-12-13T09:24:53.307Z,99.99
2017-12-13T09:25:53.278Z,99.99
2017-12-13T09:26:53.263Z,99.99
2017-12-13T09:27:53.226Z,99.99
2017-12-13T09:28:53.212Z,99.99
2017-12-13T09:29:53.190Z,99.99
2017-12-13T09:30:53.168Z,99.99
2017-12-13T09:31:53.156Z,99.99
2017-12-13T09:32:53.130Z,99.99
2017-12-13T09:33:53.102Z,99.99
2017-12-13T09:34:53.087Z,99.99
2017-12-13T09:35:53.073Z,99.99
2017-12-13T09:36:53.053Z,99.99
2017-12-13T09:37:53.018Z,99.99
2017-12-13T09:38:53.026Z,99.99
2017-12-13T09:39:52.971Z,99.99
2017-12-13T09:40:52.973Z,99.99
2017-12-13T09:41:52.943Z,99.99
2017-12-13T09:42:52.915Z,99.99
2017-12-13T09:43:52.909Z,99.99
2017-12-13T09:44:52.880Z,99.99
2017-12-13T09:45:52.853Z,99.99
2017-12-13T09:46:52.832Z,99.99
2017-12-13T09:47:52.827Z,99.99
2017-12-13T09:48:53.352Z,99.99
2017-12-13T09:49:52.782Z,99.99
2017-12-13T09:50:52.761Z,99.99
2017-12-13T09:51:52.737Z,99.99
2017-12-13T09:52:52.711Z,99.99
2017-12-13T09:53:52.682Z,99.99
2017-12-13T09:54:52.673Z,99.99
2017-12-13T09:55:52.657Z,99.99
2017-12-13T09:56:52.653Z,99.99
2017-12-13T09:57:52.602Z,99.99
2017-12-13T09:58:52.586Z,99.99
2017-12-13T09:59:52.572Z,99.99
2017-12-13T10:00:52.554Z,99.99
2017-12-13T10:01:52.532Z,99.99
2017-12-13T10:02:52.517Z,99.99
2017-12-13T10:03:52.490Z,99.99
2017-12-13T10:04:52.486Z,99.99
2017-12-13T10:05:52.433Z,99.99
2017-12-13T10:06:52.419Z,99.99
2017-12-13T10:07:52.393Z,99.99
2017-12-13T10:08:52.378Z,99.99
2017-12-13T10:09:52.361Z,99.99
2017-12-13T10:10:52.349Z,99.99
2017-12-13T10:11:52.330Z,99.99
2017-12-13T10:12:52.306Z,99.99
2017-12-13T10:13:52.312Z,99.99
2017-12-13T10:14:52.262Z,99.54
2017-12-13T10:15:52.243Z,99.73
2017-12-13T10:16:52.213Z,99.63
2017-12-13T10:17:52.205Z,99.25
2017-12-13T10:18:52.183Z,99.88
2017-12-13T10:19:52.170Z,98.77
2017-12-13T10:20:52.126Z,98.48
2017-12-13T10:21:52.118Z,98.86
2017-12-13T10:22:52.104Z,99.83
2017-12-13T10:23:52.082Z,99.99
2017-12-13T10:24:52.062Z,99.99
2017-12-13T10:25:52.024Z,99.99
2017-12-13T10:26:52.021Z,99.99
2017-12-13T10:27:51.999Z,98.48
2017-12-13T10:28:51.978Z,99.06
2017-12-13T10:29:51.960Z,99.44
2017-12-13T10:30:51.936Z,99.63
2017-12-13T10:31:51.933Z,99.83
2017-12-13T10:32:51.895Z,99.99
2017-12-13T10:33:51.872Z,99.99
2017-12-13T10:34:51.865Z,99.99
2017-12-13T10:35:51.841Z,99.99
2017-12-13T10:36:51.810Z,99.99
2017-12-13T10:37:51.801Z,99.99
2017-12-13T10:38:51.775Z,99.73
2017-12-13T10:39:51.763Z,99.63
2017-12-13T10:40:51.741Z,98.68
2017-12-13T10:41:51.717Z,99.99
2017-12-13T10:42:51.679Z,99.73
2017-12-13T10:43:51.677Z,99.92
2017-12-13T10:44:51.653Z,98.68
2017-12-13T10:45:51.622Z,98.86
2017-12-13T10:46:51.601Z,99.73
2017-12-13T10:47:51.582Z,99.25
2017-12-13T10:48:51.562Z,98.86
2017-12-13T10:49:51.546Z,99.35
2017-12-13T10:50:51.524Z,98.86
2017-12-13T10:51:51.498Z,98.77
2017-12-13T10:52:51.494Z,99.54
2017-12-13T10:53:51.466Z,98.39
2017-12-13T10:54:51.455Z,97.76
2017-12-13T10:55:51.434Z,96.99
2017-12-13T10:56:51.412Z,96.99
2017-12-13T10:57:51.395Z,96.70
2017-12-13T10:58:51.821Z,96.51
2017-12-13T10:59:51.356Z,94.06
2017-12-13T11:00:51.328Z,94.01
2017-12-13T11:01:51.298Z,95.36
2017-12-13T11:02:51.281Z,95.07
2017-12-13T11:03:51.259Z,96.03
2017-12-13T11:04:51.236Z,96.32
2017-12-13T11:05:51.232Z,96.13
2017-12-13T11:06:51.206Z,96.37
2017-12-13T11:07:51.186Z,96.56
2017-12-13T11:08:51.163Z,97.14
2017-12-13T11:09:51.157Z,97.33
2017-12-13T11:10:51.136Z,96.75
2017-12-13T11:11:51.115Z,97.42
2017-12-13T11:12:51.083Z,96.75
2017-12-13T11:13:51.078Z,96.75
2017-12-13T11:14:51.080Z,96.94
2017-12-13T11:15:51.025Z,96.42
2017-12-13T11:16:51.037Z,96.22
2017-12-13T11:17:50.997Z,96.90
2017-12-13T11:18:50.969Z,96.03
2017-12-13T11:19:50.976Z,96.32
2017-12-13T11:20:50.935Z,94.49
2017-12-13T11:21:50.938Z,94.49
2017-12-13T11:22:50.890Z,94.25
2017-12-13T11:23:50.875Z,94.88
2017-12-13T11:24:50.851Z,95.98
2017-12-13T11:25:50.837Z,96.47
2017-12-13T11:26:50.809Z,97.04
2017-12-13T11:27:50.797Z,96.61
2017-12-13T11:28:50.782Z,96.22
2017-12-13T11:29:50.763Z,95.36
2017-12-13T11:30:50.730Z,95.79
2017-12-13T11:31:50.712Z,96.27
2017-12-13T11:32:50.702Z,96.08
2017-12-13T11:33:50.681Z,96.47
2017-12-13T11:34:50.654Z,95.89
2017-12-13T11:35:50.646Z,96.94
2017-12-13T11:36:50.624Z,97.14
2017-12-13T11:37:50.603Z,96.94
2017-12-13T11:38:50.575Z,96.90
2017-12-13T11:39:50.561Z,96.27
2017-12-13T11:40:50.540Z,96.03
2017-12-13T11:41:50.520Z,95.65
2017-12-13T11:42:50.490Z,96.51
2017-12-13T11:43:50.480Z,95.36
2017-12-13T11:44:50.463Z,95.07
2017-12-13T11:45:50.453Z,94.01
2017-12-13T11:46:50.410Z,94.01
2017-12-13T11:47:50.389Z,94.59
2017-12-13T11:48:50.385Z,94.11
2017-12-13T11:49:50.378Z,94.11
2017-12-13T11:50:50.330Z,94.21
2017-12-13T11:51:50.319Z,94.01
2017-12-13T11:52:50.296Z,94.11
2017-12-13T11:53:50.274Z,93.77
2017-12-13T11:54:50.255Z,92.91
2017-12-13T11:55:50.236Z,92.23
2017-12-13T11:56:50.229Z,92.81
2017-12-13T11:57:50.205Z,93.38
2017-12-13T11:58:50.179Z,92.23
2017-12-13T11:59:50.173Z,92.76
2017-12-13T12:00:50.150Z,90.97
2017-12-13T12:01:50.122Z,89.34
2017-12-13T12:02:50.126Z,88.09
2017-12-13T12:03:50.098Z,89.24
2017-12-13T12:04:50.061Z,89.24
2017-12-13T12:05:50.040Z,89.68
2017-12-13T12:06:50.026Z,91.31
2017-12-13T12:07:50.005Z,92.18
2017-12-13T12:08:49.996Z,91.80
2017-12-13T12:09:49.959Z,91.31
2017-12-13T12:10:49.963Z,90.26
2017-12-13T12:11:49.943Z,88.95
2017-12-13T12:12:49.919Z,89.24
2017-12-13T12:13:49.894Z,88.18
2017-12-13T12:14:49.874Z,87.60
2017-12-13T12:15:49.889Z,87.60
2017-12-13T12:16:49.868Z,88.85
2017-12-13T12:17:49.890Z,88.51
2017-12-13T12:18:49.829Z,87.74
2017-12-13T12:19:49.786Z,86.88
2017-12-13T12:20:49.763Z,86.21
2017-12-13T12:21:49.747Z,86.73
2017-12-13T12:22:49.727Z,85.67
2017-12-13T12:23:49.740Z,85.05
2017-12-13T12:24:49.703Z,86.78
2017-12-13T12:25:49.685Z,85.47
2017-12-13T12:26:49.649Z,84.80
2017-12-13T12:27:49.649Z,84.32
2017-12-13T12:28:49.648Z,84.03
2017-12-13T12:29:49.597Z,84.70
2017-12-13T12:30:49.583Z,86.98
2017-12-13T12:31:49.567Z,87.26
2017-12-13T12:32:49.547Z,88.18
2017-12-13T12:33:49.531Z,88.67
2017-12-13T12:34:49.542Z,89.15
2017-12-13T12:35:49.506Z,87.70
2017-12-13T12:36:49.474Z,88.18
2017-12-13T12:37:49.470Z,87.70
2017-12-13T12:38:49.442Z,87.80
2017-12-13T12:39:49.429Z,87.70
2017-12-13T12:40:49.421Z,88.09
2017-12-13T12:41:49.392Z,86.88
2017-12-13T12:42:49.814Z,85.91
2017-12-13T12:43:49.356Z,88.04
2017-12-13T12:44:49.352Z,87.12
2017-12-13T12:45:49.319Z,87.32
2017-12-13T12:46:49.313Z,87.90
2017-12-13T12:47:49.289Z,86.83
2017-12-13T12:48:49.267Z,86.78
2017-12-13T12:49:49.265Z,86.63
2017-12-13T12:50:49.269Z,84.70
2017-12-13T12:51:49.228Z,84.80